createdAt,value
2022-07-28T00:00:37.079Z,102098.13
2022-07-28T00:03:09.154Z,102096.38
2022-07-28T00:05:41.742Z,102098.19
2022-07-28T00:08:13.766Z,102100.84
2022-07-28T00:10:45.786Z,102103.50
2022-07-28T00:13:17.861Z,102095.66
2022-07-28T00:15:50.224Z,102100.00
2022-07-28T00:18:22.220Z,102101.78
2022-07-28T00:20:54.180Z,102095.63
2022-07-28T00:23:37.599Z,102093.88
2022-07-28T00:26:12.639Z,102093.88
2022-07-28T00:28:44.651Z,102091.25
2022-07-28T00:31:16.851Z,102100.00
2022-07-28T00:33:49.021Z,102095.63
2022-07-28T00:36:24.567Z,102093.03
2022-07-28T00:38:57.660Z,102089.53
2022-07-28T00:41:29.689Z,102091.28
2022-07-28T00:44:01.655Z,102093.91
2022-07-28T00:46:34.868Z,102095.66
2022-07-28T00:49:07.403Z,102092.13
2022-07-28T00:51:40.780Z,102091.25
2022-07-28T00:54:12.979Z,102095.66
2022-07-28T00:56:45.236Z,102085.09
2022-07-28T00:59:17.475Z,102089.47
2022-07-28T01:01:49.907Z,102091.25
2022-07-28T01:04:25.929Z,102091.25
2022-07-28T01:07:23.912Z,102100.88
2022-07-28T01:10:16.428Z,102100.00
2022-07-28T01:13:04.415Z,102100.00
2022-07-28T01:16:03.028Z,102103.50
2022-07-28T01:19:04.374Z,102103.53
2022-07-28T01:21:40.081Z,102097.41
2022-07-28T01:24:44.019Z,102099.13
2022-07-28T01:27:49.727Z,102093.88
2022-07-28T01:30:39.885Z,102098.25
2022-07-28T01:33:48.022Z,102094.75
2022-07-28T01:36:27.029Z,102096.50
2022-07-28T01:39:00.680Z,102093.00
2022-07-28T01:41:34.146Z,102085.97
2022-07-28T01:44:11.159Z,102082.47
2022-07-28T01:46:45.220Z,102078.94
2022-07-28T01:49:20.091Z,102076.31
2022-07-28T01:51:53.350Z,102073.69
2022-07-28T01:54:28.611Z,102071.94
2022-07-28T01:57:02.071Z,102074.56
2022-07-28T01:59:35.053Z,102078.97
2022-07-28T02:02:08.028Z,102076.31
2022-07-28T02:04:41.805Z,102070.22
2022-07-28T02:07:15.092Z,102074.66
2022-07-28T02:09:47.981Z,102066.75
2022-07-28T02:12:20.762Z,102066.75
2022-07-28T02:14:54.019Z,102065.00
2022-07-28T02:17:31.362Z,102056.25
2022-07-28T02:20:06.118Z,102054.50
2022-07-28T02:22:40.601Z,102064.13
2022-07-28T02:25:13.483Z,102065.88
2022-07-28T02:27:52.774Z,102064.13
2022-07-28T02:30:47.450Z,102063.25
2022-07-28T02:33:58.107Z,102061.50
2022-07-28T02:36:31.312Z,102063.25
2022-07-28T02:39:08.599Z,102063.25
2022-07-28T02:41:42.919Z,102064.09
2022-07-28T02:44:29.216Z,102064.94
2022-07-28T02:47:05.012Z,102071.97
2022-07-28T02:49:39.060Z,102064.06
2022-07-28T02:52:12.670Z,102068.47
2022-07-28T02:54:45.530Z,102068.50
2022-07-28T02:57:19.460Z,102062.34
2022-07-28T02:59:53.173Z,102064.09
2022-07-28T03:02:25.467Z,102072.88
2022-07-28T03:04:59.253Z,102075.53
2022-07-28T03:07:33.182Z,102074.63
2022-07-28T03:10:06.071Z,102074.63
2022-07-28T03:12:38.056Z,102085.16
2022-07-28T03:15:10.989Z,102085.16
2022-07-28T03:17:44.064Z,102088.66
2022-07-28T03:20:16.047Z,102083.38
2022-07-28T03:22:48.041Z,102093.94
2022-07-28T03:25:48.330Z,102100.97
2022-07-28T03:28:22.360Z,102101.88
2022-07-28T03:31:09.009Z,102100.97
2022-07-28T03:33:41.585Z,102098.31
2022-07-28T03:36:19.561Z,102093.94
2022-07-28T03:39:03.935Z,102099.22
2022-07-28T03:41:37.099Z,102103.59
2022-07-28T03:44:12.694Z,102106.19
2022-07-28T03:46:46.287Z,102109.69
2022-07-28T03:49:18.307Z,102114.06
2022-07-28T03:51:50.426Z,102119.34
2022-07-28T03:54:22.480Z,102119.38
2022-07-28T03:56:54.544Z,102113.25
2022-07-28T03:59:26.556Z,102115.00
2022-07-28T04:01:58.572Z,102112.34
2022-07-28T04:04:30.648Z,102117.63
2022-07-28T04:07:02.631Z,102116.72
2022-07-28T04:09:34.559Z,102114.94
2022-07-28T04:12:07.025Z,102115.84
2022-07-28T04:14:39.007Z,102115.81
2022-07-28T04:17:11.123Z,102114.91
2022-07-28T04:19:43.176Z,102113.16
2022-07-28T04:22:15.130Z,102109.59
2022-07-28T04:24:47.169Z,102108.66
2022-07-28T04:27:19.182Z,102106.88
2022-07-28T04:29:51.122Z,102113.91
2022-07-28T04:32:23.098Z,102113.94
2022-07-28T04:34:55.226Z,102108.72
2022-07-28T04:37:27.575Z,102113.13
2022-07-28T04:40:07.223Z,102114.00
2022-07-28T04:42:40.255Z,102107.81
2022-07-28T04:45:12.377Z,102109.53
2022-07-28T04:47:44.438Z,102106.88
2022-07-28T04:50:19.071Z,102108.63
2022-07-28T04:52:51.145Z,102101.59
2022-07-28T04:55:23.153Z,102112.97
2022-07-28T04:57:55.136Z,102108.56
2022-07-28T05:00:27.129Z,102107.72
2022-07-28T05:02:59.154Z,102106.75
2022-07-28T05:05:31.408Z,102102.31
2022-07-28T05:08:03.423Z,102099.66
2022-07-28T05:10:35.476Z,102104.03
2022-07-28T05:13:08.053Z,102096.91
2022-07-28T05:15:40.096Z,102100.34
2022-07-28T05:18:12.061Z,102108.19
2022-07-28T05:20:44.033Z,102101.06
2022-07-28T05:23:17.723Z,102105.47
2022-07-28T05:25:49.905Z,102104.59
2022-07-28T05:28:22.009Z,102104.53
2022-07-28T05:30:54.355Z,102108.91
2022-07-28T05:33:31.168Z,102103.72
2022-07-28T05:36:05.241Z,102113.38
2022-07-28T05:38:37.443Z,102111.63
2022-07-28T05:41:09.403Z,102113.41
2022-07-28T05:43:41.531Z,102113.38
2022-07-28T05:46:13.572Z,102112.50
2022-07-28T05:48:46.688Z,102101.91
2022-07-28T05:51:18.976Z,102112.44
2022-07-28T05:53:50.943Z,102118.56
2022-07-28T05:56:23.212Z,102115.00
2022-07-28T05:58:55.181Z,102120.19
2022-07-28T06:01:27.228Z,102123.66
2022-07-28T06:04:25.670Z,102131.53
2022-07-28T06:06:51.536Z,102130.59
2022-07-28T06:09:23.551Z,102128.81
2022-07-28T06:11:56.256Z,102127.09
2022-07-28T06:14:28.283Z,102133.25
2022-07-28T06:17:00.312Z,102136.72
2022-07-28T06:19:35.187Z,102137.56
2022-07-28T06:22:07.151Z,102143.63
2022-07-28T06:24:39.177Z,102146.28
2022-07-28T06:27:11.237Z,102141.94
2022-07-28T06:29:43.185Z,102137.47
2022-07-28T06:32:17.155Z,102139.19
2022-07-28T06:34:49.140Z,102139.34
2022-07-28T06:37:21.152Z,102139.38
2022-07-28T06:39:53.131Z,102142.00
2022-07-28T06:42:25.228Z,102139.25
2022-07-28T06:44:59.738Z,102135.69
2022-07-28T06:47:32.245Z,102146.97
2022-07-28T06:50:06.116Z,102134.53
2022-07-28T06:52:58.984Z,102133.59
2022-07-28T06:55:35.551Z,102136.22
2022-07-28T06:58:08.465Z,102143.16
2022-07-28T07:00:40.522Z,102146.44
2022-07-28T07:03:12.592Z,102153.31
2022-07-28T07:05:44.630Z,102145.31
2022-07-28T07:08:21.055Z,102149.03
2022-07-28T07:10:53.116Z,102149.72
2022-07-28T07:13:25.293Z,102153.84
2022-07-28T07:15:57.376Z,102148.16
2022-07-28T07:18:29.546Z,102139.94
2022-07-28T07:21:01.581Z,102144.97
2022-07-28T07:23:35.554Z,102146.50
2022-07-28T07:26:07.550Z,102149.88
2022-07-28T07:28:41.941Z,102156.56
2022-07-28T07:31:14.166Z,102153.59
2022-07-28T07:33:46.550Z,102141.00
2022-07-28T07:36:18.675Z,102144.41
2022-07-28T07:38:50.715Z,102143.13
2022-07-28T07:41:23.163Z,102144.84
2022-07-28T07:43:55.212Z,102142.25
2022-07-28T07:46:27.272Z,102145.59
2022-07-28T07:48:59.380Z,102146.47
2022-07-28T07:51:31.550Z,102143.91
2022-07-28T07:54:03.629Z,102141.28
2022-07-28T07:56:35.634Z,102137.53
2022-07-28T07:59:07.710Z,102134.38
2022-07-28T08:01:40.450Z,102139.47
2022-07-28T08:04:14.235Z,102137.59
2022-07-28T08:06:48.079Z,102139.22
2022-07-28T08:09:20.334Z,102141.66
2022-07-28T08:11:52.332Z,102143.03
2022-07-28T08:14:24.326Z,102138.75
2022-07-28T08:16:58.595Z,102141.72
2022-07-28T08:19:30.626Z,102141.56
2022-07-28T08:22:02.689Z,102138.75
2022-07-28T08:24:34.787Z,102137.69
2022-07-28T08:27:07.266Z,102134.97
2022-07-28T08:29:39.315Z,102134.75
2022-07-28T08:32:11.295Z,102133.66
2022-07-28T08:34:43.275Z,102127.16
2022-07-28T08:37:15.262Z,102132.31
2022-07-28T08:39:47.242Z,102130.50
2022-07-28T08:42:27.404Z,102129.19
2022-07-28T08:45:04.024Z,102136.47
2022-07-28T08:47:58.636Z,102131.13
2022-07-28T08:50:31.248Z,102130.81
2022-07-28T08:53:03.629Z,102133.75
2022-07-28T08:55:37.048Z,102131.28
2022-07-28T08:58:09.294Z,102134.84
2022-07-28T09:00:42.094Z,102140.16
2022-07-28T09:03:15.081Z,102132.09
2022-07-28T09:05:47.640Z,102125.66
2022-07-28T09:08:19.804Z,102132.69
2022-07-28T09:10:52.617Z,102128.75
2022-07-28T09:13:24.680Z,102128.97
2022-07-28T09:15:57.527Z,102126.88
2022-07-28T09:18:29.602Z,102122.66
2022-07-28T09:21:01.578Z,102118.19
2022-07-28T09:23:48.819Z,102105.06
2022-07-28T09:26:20.909Z,102115.44
2022-07-28T09:28:56.266Z,102118.19
2022-07-28T09:31:30.692Z,102115.19
2022-07-28T09:34:06.184Z,102119.69
2022-07-28T09:36:40.954Z,102115.03
2022-07-28T09:39:32.736Z,102121.13
2022-07-28T09:42:04.892Z,102115.44
2022-07-28T09:44:37.058Z,102113.59
2022-07-28T09:47:25.138Z,102112.50
2022-07-28T09:49:57.313Z,102104.56
2022-07-28T09:52:38.448Z,102105.09
2022-07-28T09:55:12.753Z,102102.19
2022-07-28T09:57:45.820Z,102103.69
2022-07-28T10:00:28.470Z,102103.34
2022-07-28T10:03:00.866Z,102101.72
2022-07-28T10:05:41.109Z,102102.78
2022-07-28T10:08:13.049Z,102104.13
2022-07-28T10:11:00.794Z,102103.97
2022-07-28T10:13:33.044Z,102107.09
2022-07-28T10:16:12.518Z,102106.47
2022-07-28T10:18:45.076Z,102103.03
2022-07-28T10:21:20.604Z,102101.97
2022-07-28T10:23:56.256Z,102102.47
2022-07-28T10:26:57.043Z,102106.66
2022-07-28T10:29:31.629Z,102108.44
2022-07-28T10:32:06.417Z,102109.16
2022-07-28T10:34:45.313Z,102094.47
2022-07-28T10:37:27.848Z,102100.97
2022-07-28T10:40:10.719Z,102102.97
2022-07-28T10:42:43.250Z,102095.91
2022-07-28T10:45:16.424Z,102090.91
2022-07-28T10:47:49.292Z,102088.81
2022-07-28T10:50:22.000Z,102090.31
2022-07-28T10:52:58.953Z,102081.38
2022-07-28T10:55:49.675Z,102090.41
2022-07-28T10:58:50.404Z,102080.59
2022-07-28T11:01:50.320Z,102082.84
2022-07-28T11:04:41.657Z,102077.28
2022-07-28T11:07:17.091Z,102073.84
2022-07-28T11:09:49.788Z,102070.41
2022-07-28T11:12:52.340Z,102067.00
2022-07-28T11:15:38.352Z,102068.75
2022-07-28T11:18:10.808Z,102067.00
2022-07-28T11:21:00.700Z,102068.66
2022-07-28T11:23:53.896Z,102075.38
2022-07-28T11:26:38.201Z,102070.63
2022-07-28T11:29:13.239Z,102066.41
2022-07-28T11:31:45.271Z,102071.91
2022-07-28T11:34:23.819Z,102063.75
2022-07-28T11:37:15.214Z,102060.44
2022-07-28T11:39:47.463Z,102067.03
2022-07-28T11:42:33.828Z,102073.03
2022-07-28T11:45:35.887Z,102063.28
2022-07-28T11:48:25.288Z,102069.28
2022-07-28T11:51:03.270Z,102065.16
2022-07-28T11:53:52.909Z,102062.88
2022-07-28T11:56:31.785Z,102056.97
2022-07-28T11:59:08.031Z,102054.34
2022-07-28T12:01:56.958Z,102040.78
2022-07-28T12:04:29.381Z,102047.19
2022-07-28T12:07:02.552Z,102040.84
2022-07-28T12:09:41.903Z,102044.69
2022-07-28T12:12:14.487Z,102041.72
2022-07-28T12:14:46.921Z,102043.75
2022-07-28T12:17:19.051Z,102040.63
2022-07-28T12:19:52.895Z,102035.28
2022-07-28T12:22:26.182Z,102048.47
2022-07-28T12:24:58.463Z,102036.69
2022-07-28T12:27:31.839Z,102039.66
2022-07-28T12:30:05.769Z,102034.28
2022-07-28T12:32:37.748Z,102042.44
2022-07-28T12:35:10.217Z,102030.56
2022-07-28T12:37:44.372Z,102023.22
2022-07-28T12:40:27.445Z,102023.91
2022-07-28T12:42:59.725Z,102018.28
2022-07-28T12:45:33.492Z,102021.19
2022-07-28T12:48:09.101Z,102024.69
2022-07-28T12:50:41.737Z,102023.75
2022-07-28T12:53:15.225Z,102019.34
2022-07-28T12:55:47.476Z,102020.72
2022-07-28T12:58:28.803Z,102018.22
2022-07-28T13:01:01.576Z,102012.47
2022-07-28T13:03:33.920Z,102008.72
2022-07-28T13:06:15.764Z,102007.66
2022-07-28T13:08:48.137Z,102008.34
2022-07-28T13:11:47.432Z,102008.19
2022-07-28T13:14:44.403Z,102007.75
2022-07-28T13:17:16.654Z,101999.72
2022-07-28T13:19:49.586Z,102006.03
2022-07-28T13:22:30.037Z,102004.91
2022-07-28T13:25:02.545Z,102003.59
2022-07-28T13:27:35.212Z,102001.00
2022-07-28T13:30:11.904Z,101998.75
2022-07-28T13:32:44.163Z,101999.41
2022-07-28T13:35:18.137Z,101986.16
2022-07-28T13:37:51.336Z,101987.03
2022-07-28T13:40:23.409Z,101987.69
2022-07-28T13:42:57.021Z,101989.06
2022-07-28T13:45:30.343Z,101990.31
2022-07-28T13:48:06.212Z,101989.09
2022-07-28T13:50:41.450Z,101989.28
2022-07-28T13:53:39.470Z,101985.69
2022-07-28T13:56:12.055Z,101986.31
2022-07-28T13:58:44.170Z,101977.22
2022-07-28T14:01:16.223Z,101985.84
2022-07-28T14:03:55.619Z,101978.72
2022-07-28T14:06:30.412Z,101978.28
2022-07-28T14:09:05.111Z,101973.66
2022-07-28T14:11:37.700Z,101967.03
2022-07-28T14:14:09.702Z,101968.56
2022-07-28T14:16:47.452Z,101969.78
2022-07-28T14:19:23.360Z,101967.63
2022-07-28T14:22:13.805Z,101960.59
2022-07-28T14:24:46.212Z,101965.75
2022-07-28T14:27:18.171Z,101964.94
2022-07-28T14:29:50.274Z,101968.31
2022-07-28T14:32:22.298Z,101967.66
2022-07-28T14:34:54.652Z,101970.53
2022-07-28T14:37:27.501Z,101972.44
2022-07-28T14:39:59.504Z,101976.13
2022-07-28T14:42:31.492Z,101966.66
2022-07-28T14:45:05.692Z,101965.06
2022-07-28T14:47:45.202Z,101965.63
2022-07-28T14:50:17.652Z,101962.00
2022-07-28T14:52:50.288Z,101962.94
2022-07-28T14:55:22.352Z,101958.84
2022-07-28T14:57:55.170Z,101947.13
2022-07-28T15:00:28.487Z,101949.25
2022-07-28T15:03:00.518Z,101947.03
2022-07-28T15:05:34.454Z,101948.13
2022-07-28T15:08:06.581Z,101945.88
2022-07-28T15:10:39.107Z,101943.72
2022-07-28T15:13:11.095Z,101947.56
2022-07-28T15:15:44.864Z,101940.34
2022-07-28T15:18:16.952Z,101932.63
2022-07-28T15:20:49.829Z,101935.28
2022-07-28T15:23:23.007Z,101932.69
2022-07-28T15:25:56.237Z,101927.50
2022-07-28T15:28:28.836Z,101927.19
2022-07-28T15:31:01.286Z,101927.84
2022-07-28T15:33:48.203Z,101924.38
2022-07-28T15:36:25.367Z,101928.94
2022-07-28T15:38:57.370Z,101920.91
2022-07-28T15:41:29.847Z,101924.44
2022-07-28T15:44:01.872Z,101918.59
2022-07-28T15:46:34.130Z,101921.63
2022-07-28T15:49:09.883Z,101919.53
2022-07-28T15:51:42.103Z,101911.09
2022-07-28T15:54:14.344Z,101910.94
2022-07-28T15:56:46.527Z,101913.72
2022-07-28T15:59:18.586Z,101908.38
2022-07-28T16:01:50.750Z,101907.16
2022-07-28T16:04:22.771Z,101908.41
2022-07-28T16:07:14.191Z,101911.66
2022-07-28T16:09:47.032Z,101911.22
2022-07-28T16:12:19.197Z,101904.94
2022-07-28T16:14:54.098Z,101903.84
2022-07-28T16:17:26.354Z,101906.16
2022-07-28T16:20:02.456Z,101909.16
2022-07-28T16:22:38.840Z,101905.25
2022-07-28T16:25:16.493Z,101906.69
2022-07-28T16:27:49.463Z,101903.66
2022-07-28T16:30:21.594Z,101903.66
2022-07-28T16:32:55.155Z,101897.38
2022-07-28T16:35:32.774Z,101911.00
2022-07-28T16:38:05.955Z,101908.34
2022-07-28T16:40:41.256Z,101906.31
2022-07-28T16:43:13.326Z,101903.97
2022-07-28T16:45:45.355Z,101908.25
2022-07-28T16:48:17.456Z,101907.63
2022-07-28T16:50:49.506Z,101900.13
2022-07-28T16:53:21.549Z,101895.78
2022-07-28T16:55:53.817Z,101903.94
2022-07-28T16:58:26.093Z,101896.34
2022-07-28T17:00:58.224Z,101898.34
2022-07-28T17:03:31.173Z,101902.81
2022-07-28T17:06:03.995Z,101904.06
2022-07-28T17:08:36.710Z,101900.47
2022-07-28T17:11:08.733Z,101906.81
2022-07-28T17:13:45.067Z,101904.41
2022-07-28T17:16:17.567Z,101907.09
2022-07-28T17:18:49.763Z,101912.91
2022-07-28T17:21:21.902Z,101909.38
2022-07-28T17:23:53.944Z,101906.72
2022-07-28T17:29:18.174Z,101903.66
2022-07-28T17:31:50.489Z,101908.69
2022-07-28T17:34:22.633Z,101913.50
2022-07-28T17:36:55.579Z,101905.19
2022-07-28T17:39:27.872Z,101908.91
2022-07-28T17:41:59.846Z,101901.16
2022-07-28T17:44:31.911Z,101908.66
2022-07-28T17:47:04.908Z,101898.25
2022-07-28T17:49:42.075Z,101906.34
2022-07-28T17:52:17.276Z,101900.63
2022-07-28T17:55:10.224Z,101895.56
2022-07-28T17:57:42.191Z,101900.66
2022-07-28T18:00:15.077Z,101904.19
2022-07-28T18:02:49.868Z,101908.75
2022-07-28T18:05:22.973Z,101904.72
2022-07-28T18:07:59.052Z,101900.31
2022-07-28T18:10:31.626Z,101902.00
2022-07-28T18:13:04.875Z,101905.88
2022-07-28T18:15:37.036Z,101910.50
2022-07-28T18:18:10.047Z,101908.06
2022-07-28T18:20:42.604Z,101909.44
2022-07-28T18:23:15.259Z,101916.72
2022-07-28T18:25:56.916Z,101913.06
2022-07-28T18:28:29.049Z,101914.09
2022-07-28T18:31:01.114Z,101920.41
2022-07-28T18:33:33.136Z,101917.00
2022-07-28T18:36:05.520Z,101927.00
2022-07-28T18:38:37.478Z,101922.13
2022-07-28T18:41:09.483Z,101915.94
2022-07-28T18:43:41.884Z,101915.44
2022-07-28T18:46:14.106Z,101905.00
2022-07-28T18:48:48.485Z,101908.56
2022-07-28T18:51:22.419Z,101904.44
2022-07-28T18:53:57.712Z,101908.28
2022-07-28T18:56:29.736Z,101906.59
2022-07-28T18:59:01.698Z,101910.22
2022-07-28T19:01:33.776Z,101909.56
2022-07-28T19:04:05.812Z,101907.06
2022-07-28T19:06:37.873Z,101904.69
2022-07-28T19:09:09.950Z,101904.03
2022-07-28T19:11:46.040Z,101906.84
2022-07-28T19:14:19.239Z,101911.41
2022-07-28T19:16:51.633Z,101915.31
2022-07-28T19:19:23.711Z,101913.72
2022-07-28T19:21:55.990Z,101913.00
2022-07-28T19:24:28.003Z,101914.91
2022-07-28T19:27:00.599Z,101905.31
2022-07-28T19:29:34.893Z,101918.66
2022-07-28T19:32:08.008Z,101916.31
2022-07-28T19:34:40.088Z,101915.53
2022-07-28T19:37:16.725Z,101915.69
2022-07-28T19:39:49.468Z,101919.41
2022-07-28T19:42:21.519Z,101919.66
2022-07-28T19:44:56.091Z,101927.69
2022-07-28T19:47:28.356Z,101923.31
2022-07-28T19:50:00.412Z,101935.88
2022-07-28T19:52:33.028Z,101924.69
2022-07-28T19:55:06.387Z,101930.06
2022-07-28T19:57:38.349Z,101934.53
2022-07-28T20:00:11.705Z,101931.97
2022-07-28T20:02:44.185Z,101929.72
2022-07-28T20:05:16.309Z,101933.50
2022-07-28T20:07:48.468Z,101931.72
2022-07-28T20:10:20.862Z,101930.16
2022-07-28T20:12:53.249Z,101926.78
2022-07-28T20:15:26.067Z,101938.44
2022-07-28T20:17:58.161Z,101930.59
2022-07-28T20:20:30.116Z,101935.09
2022-07-28T20:23:02.187Z,101934.25
2022-07-28T20:25:34.220Z,101928.22
2022-07-28T20:28:06.253Z,101932.00
2022-07-28T20:30:39.465Z,101928.66
2022-07-28T20:33:11.509Z,101935.84
2022-07-28T20:35:43.544Z,101939.47
2022-07-28T20:38:15.572Z,101941.28
2022-07-28T20:40:47.573Z,101938.63
2022-07-28T20:43:19.624Z,101943.09
2022-07-28T20:45:51.642Z,101953.72
2022-07-28T20:48:23.667Z,101957.31
2022-07-28T20:50:55.728Z,101956.50
2022-07-28T20:53:27.821Z,101958.34
2022-07-28T20:56:00.184Z,101957.53
2022-07-28T20:58:32.230Z,101955.09
2022-07-28T21:01:06.673Z,101961.31
2022-07-28T21:03:39.600Z,101963.97
2022-07-28T21:06:16.285Z,101961.41
2022-07-28T21:08:49.267Z,101959.72
2022-07-28T21:11:23.532Z,101971.22
2022-07-28T21:13:56.716Z,101967.78
2022-07-28T21:16:28.805Z,101970.44
2022-07-28T21:19:02.162Z,101967.88
2022-07-28T21:21:34.208Z,101971.47
2022-07-28T21:24:06.994Z,101968.91
2022-07-28T21:26:42.846Z,101963.75
2022-07-28T21:32:04.266Z,101972.66
2022-07-28T21:34:38.167Z,101977.19
2022-07-28T21:37:11.954Z,101963.22
2022-07-28T21:39:44.208Z,101970.28
2022-07-28T21:42:16.185Z,101969.50
2022-07-28T21:44:48.604Z,101969.50
2022-07-28T21:47:20.565Z,101970.44
2022-07-28T21:49:53.841Z,101967.81
2022-07-28T21:52:28.303Z,101973.16
2022-07-28T21:55:01.952Z,101978.47
2022-07-28T21:57:34.758Z,101979.53
2022-07-28T22:00:13.892Z,101977.81
2022-07-28T22:02:45.878Z,101983.13
2022-07-28T22:05:18.852Z,101983.19
2022-07-28T22:07:52.217Z,101984.84
2022-07-28T22:10:25.146Z,101982.28
2022-07-28T22:12:59.638Z,101981.47
2022-07-28T22:15:31.636Z,101990.38
2022-07-28T22:18:03.792Z,101990.50
2022-07-28T22:20:35.854Z,101990.56
2022-07-28T22:23:11.542Z,101989.75
2022-07-28T22:26:00.602Z,101988.09
2022-07-28T22:28:32.534Z,101989.88
2022-07-28T22:31:09.097Z,101995.19
2022-07-28T22:33:41.657Z,101997.03
2022-07-28T22:36:14.175Z,102002.34
2022-07-28T22:38:46.134Z,102004.94
2022-07-28T22:41:18.094Z,102008.47
2022-07-28T22:43:50.124Z,101996.13
2022-07-28T22:46:22.254Z,102006.72
2022-07-28T22:48:55.286Z,102004.06
2022-07-28T22:51:27.357Z,102002.38
2022-07-28T22:54:00.528Z,102000.66
2022-07-28T22:56:35.063Z,102005.94
2022-07-28T22:59:10.005Z,101998.91
2022-07-28T23:01:44.269Z,102006.97
2022-07-28T23:04:16.770Z,101996.41
2022-07-28T23:06:49.138Z,102006.19
2022-07-28T23:09:21.085Z,102001.84
2022-07-28T23:11:55.534Z,102000.97
2022-07-28T23:14:27.943Z,102007.94
2022-07-28T23:16:59.935Z,102007.97
2022-07-28T23:19:31.896Z,102008.06
2022-07-28T23:22:05.011Z,102008.03
2022-07-28T23:24:37.012Z,102009.81
2022-07-28T23:27:09.009Z,102016.97
2022-07-28T23:29:40.990Z,102012.59
2022-07-28T23:32:17.020Z,102010.84
2022-07-28T23:34:49.854Z,102015.25
2022-07-28T23:37:21.824Z,102007.38
2022-07-28T23:39:53.826Z,102004.75
2022-07-28T23:42:25.814Z,102002.09
2022-07-28T23:44:57.783Z,102005.66
2022-07-28T23:47:29.837Z,102005.63
2022-07-28T23:50:03.995Z,102005.72
2022-07-28T23:52:35.952Z,102011.91
2022-07-28T23:55:08.565Z,102012.75
2022-07-28T23:57:40.549Z,102009.22
